createdAt,value
2022-09-06T00:01:14.057Z,16.60
2022-09-06T00:03:45.140Z,16.60
2022-09-06T00:06:15.809Z,16.60
2022-09-06T00:08:47.122Z,16.50
2022-09-06T00:11:16.139Z,16.50
2022-09-06T00:13:44.823Z,16.50
2022-09-06T00:16:18.323Z,16.50
2022-09-06T00:18:47.256Z,16.50
2022-09-06T00:21:17.793Z,16.50
2022-09-06T00:23:48.446Z,16.50
2022-09-06T00:26:16.994Z,16.40
2022-09-06T00:28:45.715Z,16.40
2022-09-06T00:31:15.713Z,16.40
2022-09-06T00:33:44.236Z,16.40
2022-09-06T00:36:13.562Z,16.30
2022-09-06T00:38:42.560Z,16.30
2022-09-06T00:41:14.617Z,16.20
2022-09-06T00:43:43.460Z,16.20
2022-09-06T00:46:16.126Z,16.20
2022-09-06T00:48:46.258Z,16.30
2022-09-06T00:51:17.715Z,16.30
2022-09-06T00:53:46.066Z,16.30
2022-09-06T00:56:15.782Z,16.30
2022-09-06T00:58:44.618Z,16.30
2022-09-06T01:01:12.765Z,16.30
2022-09-06T01:03:41.478Z,16.30
2022-09-06T01:06:22.108Z,16.20
2022-09-06T01:09:01.324Z,16.10
2022-09-06T01:11:56.758Z,16.00
2022-09-06T01:14:37.803Z,15.90
2022-09-06T01:17:17.963Z,15.90
2022-09-06T01:20:11.492Z,15.90
2022-09-06T01:23:05.587Z,15.90
2022-09-06T01:25:40.167Z,15.90
2022-09-06T01:28:28.917Z,16.00
2022-09-06T01:31:11.124Z,15.90
2022-09-06T01:33:45.545Z,15.90
2022-09-06T01:36:18.465Z,15.90
2022-09-06T01:38:46.680Z,15.90
2022-09-06T01:41:14.689Z,15.80
2022-09-06T01:43:48.514Z,15.80
2022-09-06T01:46:24.525Z,15.80
2022-09-06T01:49:04.437Z,15.70
2022-09-06T01:51:40.232Z,15.70
2022-09-06T01:54:22.113Z,15.80
2022-09-06T01:57:00.465Z,15.80
2022-09-06T01:59:42.583Z,15.70
2022-09-06T02:02:15.083Z,15.80
2022-09-06T02:04:47.091Z,15.70
2022-09-06T02:07:21.263Z,15.80
2022-09-06T02:09:54.863Z,15.70
2022-09-06T02:12:25.162Z,15.70
2022-09-06T02:14:58.864Z,15.70
2022-09-06T02:17:30.968Z,15.60
2022-09-06T02:20:03.495Z,15.60
2022-09-06T02:22:34.283Z,15.60
2022-09-06T02:25:04.793Z,15.70
2022-09-06T02:27:34.436Z,15.60
2022-09-06T02:30:04.251Z,15.60
2022-09-06T02:32:36.629Z,15.60
2022-09-06T02:35:10.328Z,15.60
2022-09-06T02:37:38.586Z,15.60
2022-09-06T02:40:07.814Z,15.60
2022-09-06T02:42:36.141Z,15.60
2022-09-06T02:45:06.267Z,15.50
2022-09-06T02:47:34.405Z,15.50
2022-09-06T02:50:02.531Z,15.50
2022-09-06T02:52:30.901Z,15.50
2022-09-06T02:54:59.007Z,15.50
2022-09-06T03:01:48.624Z,15.40
2022-09-06T03:04:18.792Z,15.20
2022-09-06T03:06:47.121Z,15.10
2022-09-06T03:09:17.535Z,15.10
2022-09-06T03:11:45.611Z,15.10
2022-09-06T03:14:13.750Z,15.00
2022-09-06T03:16:41.860Z,14.90
2022-09-06T03:19:11.342Z,14.90
2022-09-06T03:21:39.424Z,14.90
2022-09-06T03:24:08.038Z,14.90
2022-09-06T03:26:36.186Z,14.90
2022-09-06T03:29:04.246Z,14.90
2022-09-06T03:31:32.302Z,14.80
2022-09-06T03:34:00.353Z,14.80
2022-09-06T03:36:29.794Z,14.80
2022-09-06T03:38:58.348Z,14.90
2022-09-06T03:41:26.454Z,14.90
2022-09-06T03:43:55.859Z,15.00
2022-09-06T03:46:23.975Z,15.00
2022-09-06T03:48:52.192Z,15.10
2022-09-06T03:51:21.032Z,15.10
2022-09-06T03:53:50.669Z,15.20
2022-09-06T03:56:18.773Z,15.30
2022-09-06T03:58:47.148Z,15.30
2022-09-06T04:01:15.309Z,15.30
2022-09-06T04:03:43.485Z,15.30
2022-09-06T04:06:11.539Z,15.30
2022-09-06T04:08:40.733Z,15.30
2022-09-06T04:11:10.585Z,15.40
2022-09-06T04:13:38.650Z,15.40
2022-09-06T04:16:07.790Z,15.40
2022-09-06T04:18:35.950Z,15.30
2022-09-06T04:21:04.187Z,15.30
2022-09-06T04:23:34.327Z,15.30
2022-09-06T04:26:06.070Z,15.30
2022-09-06T04:28:35.756Z,15.30
2022-09-06T04:31:05.533Z,15.30
2022-09-06T04:33:35.250Z,15.40
2022-09-06T04:36:05.108Z,15.40
2022-09-06T04:38:37.649Z,15.50
2022-09-06T04:41:06.783Z,15.60
2022-09-06T04:43:36.333Z,15.60
2022-09-06T04:46:06.664Z,15.70
2022-09-06T04:48:34.751Z,15.70
2022-09-06T04:51:02.777Z,15.70
2022-09-06T04:53:30.815Z,15.70
2022-09-06T04:55:59.408Z,15.90
2022-09-06T04:58:27.661Z,16.00
2022-09-06T05:00:57.165Z,16.10
2022-09-06T05:03:25.491Z,16.30
2022-09-06T05:05:53.640Z,16.30
2022-09-06T05:08:22.084Z,16.30
2022-09-06T05:10:52.633Z,16.30
2022-09-06T05:13:20.720Z,16.30
2022-09-06T05:15:51.365Z,16.30
2022-09-06T05:18:20.769Z,16.40
2022-09-06T05:20:53.003Z,16.40
2022-09-06T05:23:21.408Z,16.50
2022-09-06T05:25:49.962Z,16.60
2022-09-06T05:28:18.645Z,16.70
2022-09-06T05:30:46.741Z,16.80
2022-09-06T05:33:20.166Z,16.80
2022-09-06T05:35:50.086Z,16.80
2022-09-06T05:38:18.233Z,16.90
2022-09-06T05:40:50.202Z,16.90
2022-09-06T05:43:18.579Z,17.10
2022-09-06T05:45:46.852Z,17.20
2022-09-06T05:48:14.946Z,17.40
2022-09-06T05:50:43.156Z,17.60
2022-09-06T05:53:13.078Z,17.80
2022-09-06T05:55:46.225Z,17.90
2022-09-06T05:58:14.305Z,18.00
2022-09-06T06:00:42.345Z,18.00
2022-09-06T06:03:10.445Z,18.00
2022-09-06T06:05:38.576Z,18.00
2022-09-06T06:08:06.653Z,18.10
2022-09-06T06:10:39.439Z,18.20
2022-09-06T06:13:08.705Z,18.30
2022-09-06T06:15:36.783Z,18.50
2022-09-06T06:18:04.988Z,18.60
2022-09-06T06:20:33.039Z,18.80
2022-09-06T06:23:01.100Z,19.00
2022-09-06T06:25:29.213Z,19.30
2022-09-06T06:27:58.748Z,19.50
2022-09-06T06:30:55.125Z,19.90
2022-09-06T06:33:25.452Z,20.20
2022-09-06T06:36:00.617Z,20.50
2022-09-06T06:38:34.979Z,20.60
2022-09-06T06:41:06.854Z,20.60
2022-09-06T06:43:37.818Z,20.50
2022-09-06T06:46:08.242Z,20.50
2022-09-06T06:48:36.828Z,20.60
2022-09-06T06:51:05.088Z,20.60
2022-09-06T06:53:33.784Z,20.60
2022-09-06T06:56:02.206Z,20.60
2022-09-06T06:58:32.205Z,20.60
2022-09-06T07:01:04.374Z,20.60
2022-09-06T07:03:32.584Z,20.70
2022-09-06T07:06:16.143Z,20.90
2022-09-06T07:08:47.080Z,21.00
2022-09-06T07:11:19.484Z,21.30
2022-09-06T07:13:53.096Z,21.60
2022-09-06T07:16:28.238Z,22.00
2022-09-06T07:18:58.351Z,22.20
2022-09-06T07:24:06.603Z,22.70
2022-09-06T07:26:36.584Z,22.80
2022-09-06T07:29:06.335Z,23.00
2022-09-06T07:34:26.315Z,23.00
2022-09-06T07:36:54.593Z,22.90
2022-09-06T07:39:23.531Z,22.90
2022-09-06T07:41:52.179Z,22.90
2022-09-06T07:44:20.250Z,22.90
2022-09-06T07:46:52.624Z,23.00
2022-09-06T07:49:20.886Z,22.80
2022-09-06T07:51:49.281Z,22.90
2022-09-06T07:54:32.791Z,22.90
2022-09-06T07:57:03.373Z,23.00
2022-09-06T07:59:31.645Z,23.00
2022-09-06T08:02:01.186Z,23.10
2022-09-06T08:04:29.494Z,23.20
2022-09-06T08:09:45.597Z,23.40
2022-09-06T08:12:13.850Z,23.50
2022-09-06T08:14:44.412Z,23.50
2022-09-06T08:17:14.011Z,23.60
2022-09-06T08:19:42.161Z,23.80
2022-09-06T08:22:10.245Z,24.00
2022-09-06T08:24:38.688Z,24.00
2022-09-06T08:27:07.776Z,24.10
2022-09-06T08:29:36.423Z,24.30
2022-09-06T08:32:07.775Z,24.50
2022-09-06T08:34:37.335Z,24.70
2022-09-06T08:37:05.467Z,24.80
2022-09-06T08:39:33.808Z,25.00
2022-09-06T08:42:04.047Z,25.00
2022-09-06T08:47:23.851Z,25.30
2022-09-06T08:49:57.246Z,25.40
2022-09-06T08:52:54.425Z,25.60
2022-09-06T08:55:36.171Z,25.80
2022-09-06T08:58:26.036Z,26.00
2022-09-06T09:00:58.870Z,26.00
2022-09-06T09:03:33.256Z,26.00
2022-09-06T09:06:05.433Z,26.00
2022-09-06T09:08:41.142Z,26.00
2022-09-06T09:11:13.346Z,26.00
2022-09-06T09:13:52.218Z,26.00
2022-09-06T09:16:22.870Z,26.10
2022-09-06T09:18:53.564Z,26.20
2022-09-06T09:21:30.232Z,26.20
2022-09-06T09:24:03.079Z,26.10
2022-09-06T09:26:37.534Z,25.50
2022-09-06T09:29:08.487Z,25.30
2022-09-06T09:31:39.621Z,25.00
2022-09-06T09:34:13.074Z,25.10
2022-09-06T09:39:37.203Z,25.20
2022-09-06T09:42:06.002Z,25.30
2022-09-06T09:44:34.916Z,25.40
2022-09-06T09:47:24.439Z,25.50
2022-09-06T09:49:52.568Z,25.60
2022-09-06T09:52:29.141Z,25.80
2022-09-06T09:55:01.105Z,25.90
2022-09-06T09:57:32.629Z,26.00
2022-09-06T10:00:01.963Z,25.90
2022-09-06T10:02:35.667Z,25.90
2022-09-06T10:05:07.725Z,26.00
2022-09-06T10:07:45.325Z,26.00
2022-09-06T10:10:16.113Z,26.10
2022-09-06T10:12:44.325Z,26.20
2022-09-06T10:15:32.460Z,26.30
2022-09-06T10:18:00.605Z,26.50
2022-09-06T10:20:51.502Z,26.70
2022-09-06T10:26:24.603Z,27.00
2022-09-06T10:28:59.490Z,26.90
2022-09-06T10:31:42.164Z,26.70
2022-09-06T10:34:33.027Z,26.60
2022-09-06T10:37:12.795Z,26.70
2022-09-06T10:39:50.125Z,26.80
2022-09-06T10:42:27.980Z,27.10
2022-09-06T10:45:17.044Z,27.40
2022-09-06T10:47:58.484Z,27.80
2022-09-06T10:50:35.919Z,28.10
2022-09-06T10:53:11.832Z,28.30
2022-09-06T10:55:47.351Z,28.20
2022-09-06T10:58:22.540Z,28.10
2022-09-06T11:00:52.369Z,27.90
2022-09-06T11:06:18.315Z,28.00
2022-09-06T11:08:57.775Z,27.70
2022-09-06T11:11:35.646Z,27.50
2022-09-06T11:14:10.251Z,27.30
2022-09-06T11:16:47.013Z,27.30
2022-09-06T11:19:24.971Z,27.20
2022-09-06T11:22:27.431Z,27.30
2022-09-06T11:25:25.303Z,27.40
2022-09-06T11:28:01.922Z,27.80
2022-09-06T11:30:30.823Z,27.90
2022-09-06T11:33:17.366Z,28.30
2022-09-06T11:35:46.108Z,28.40
2022-09-06T11:38:24.735Z,28.90
2022-09-06T11:40:59.976Z,29.40
2022-09-06T11:43:45.953Z,29.60
2022-09-06T11:46:54.106Z,29.60
2022-09-06T11:49:41.839Z,29.20
2022-09-06T11:52:59.306Z,29.00
2022-09-06T11:55:37.524Z,28.80
2022-09-06T11:58:09.914Z,28.80
2022-09-06T12:00:39.431Z,28.90
2022-09-06T12:06:18.165Z,29.00
2022-09-06T12:08:46.615Z,29.00
2022-09-06T12:11:35.504Z,29.10
2022-09-06T12:14:06.782Z,29.30
2022-09-06T12:17:27.208Z,29.10
2022-09-06T12:20:06.883Z,29.20
2022-09-06T12:22:55.245Z,29.20
2022-09-06T12:25:52.627Z,29.10
2022-09-06T12:28:30.674Z,28.80
2022-09-06T12:30:58.979Z,28.70
2022-09-06T12:33:32.072Z,28.40
2022-09-06T12:36:19.426Z,28.60
2022-09-06T12:38:58.691Z,29.20
2022-09-06T12:41:28.699Z,29.50
2022-09-06T12:43:59.396Z,29.50
2022-09-06T12:46:30.506Z,29.40
2022-09-06T12:49:07.375Z,29.20
2022-09-06T12:51:38.504Z,29.30
2022-09-06T12:54:17.904Z,29.50
2022-09-06T12:56:45.974Z,29.50
2022-09-06T12:59:17.150Z,29.60
2022-09-06T13:01:54.377Z,29.70
2022-09-06T13:04:30.153Z,29.30
2022-09-06T13:07:00.898Z,28.90
2022-09-06T13:09:30.632Z,28.80
2022-09-06T13:12:04.984Z,28.90
2022-09-06T13:14:35.912Z,29.00
2022-09-06T13:17:03.999Z,29.00
2022-09-06T13:19:37.459Z,28.80
2022-09-06T13:22:08.764Z,28.40
2022-09-06T13:24:47.076Z,27.90
2022-09-06T13:27:34.141Z,28.10
2022-09-06T13:30:05.865Z,28.20
2022-09-06T13:32:35.885Z,28.20
2022-09-06T13:35:04.847Z,27.80
2022-09-06T13:37:39.376Z,27.80
2022-09-06T13:40:53.832Z,28.00
2022-09-06T13:43:26.647Z,27.80
2022-09-06T13:46:08.964Z,27.80
2022-09-06T13:48:38.543Z,27.80
2022-09-06T13:51:08.480Z,28.10
2022-09-06T13:53:37.961Z,27.90
2022-09-06T13:56:08.711Z,27.90
2022-09-06T13:58:37.163Z,28.00
2022-09-06T14:01:09.125Z,28.10
2022-09-06T14:03:39.190Z,28.20
2022-09-06T14:06:07.991Z,28.20
2022-09-06T14:09:03.243Z,28.10
2022-09-06T14:11:27.553Z,28.10
2022-09-06T14:13:55.787Z,28.10
2022-09-06T14:16:24.090Z,28.10
2022-09-06T14:18:53.198Z,28.20
2022-09-06T14:21:21.459Z,28.10
2022-09-06T14:23:52.197Z,28.00
2022-09-06T14:26:21.078Z,28.10
2022-09-06T14:28:51.894Z,28.10
2022-09-06T14:31:22.301Z,28.20
2022-09-06T14:33:50.745Z,28.30
2022-09-06T14:36:22.318Z,28.10
2022-09-06T14:38:52.382Z,28.20
2022-09-06T14:41:21.702Z,28.10
2022-09-06T14:43:52.702Z,28.00
2022-09-06T14:46:22.535Z,28.00
2022-09-06T14:48:57.093Z,28.10
2022-09-06T14:51:25.265Z,28.10
2022-09-06T14:53:57.743Z,28.00
2022-09-06T14:56:26.257Z,28.00
2022-09-06T14:58:57.746Z,27.90
2022-09-06T15:01:28.595Z,27.90
2022-09-06T15:03:59.199Z,27.90
2022-09-06T15:06:28.687Z,28.00
2022-09-06T15:08:59.591Z,28.00
2022-09-06T15:11:34.657Z,28.10
2022-09-06T15:14:03.941Z,28.00
2022-09-06T15:16:34.257Z,27.90
2022-09-06T15:19:03.510Z,27.90
2022-09-06T15:21:34.501Z,27.80
2022-09-06T15:24:09.637Z,27.70
2022-09-06T15:26:39.838Z,27.70
2022-09-06T15:29:08.784Z,27.70
2022-09-06T15:31:50.512Z,27.70
2022-09-06T15:34:19.432Z,27.70
2022-09-06T15:36:52.025Z,27.70
2022-09-06T15:39:21.666Z,27.70
2022-09-06T15:41:52.806Z,27.60
2022-09-06T15:44:28.733Z,27.60
2022-09-06T15:46:59.209Z,27.50
2022-09-06T15:49:30.899Z,27.50
2022-09-06T15:52:00.878Z,27.50
2022-09-06T15:54:48.395Z,27.50
2022-09-06T15:57:19.890Z,27.40
2022-09-06T15:59:48.411Z,27.40
2022-09-06T16:02:18.786Z,27.30
2022-09-06T16:04:47.270Z,27.30
2022-09-06T16:07:15.708Z,27.30
2022-09-06T16:09:45.429Z,27.20
2022-09-06T16:12:14.655Z,27.30
2022-09-06T16:14:43.142Z,27.30
2022-09-06T16:17:13.876Z,27.20
2022-09-06T16:19:42.093Z,27.20
2022-09-06T16:22:10.359Z,27.20
2022-09-06T16:24:40.368Z,27.20
2022-09-06T16:27:12.549Z,27.10
2022-09-06T16:29:47.249Z,26.90
2022-09-06T16:32:16.498Z,26.80
2022-09-06T16:35:02.930Z,26.70
2022-09-06T16:37:33.712Z,26.70
2022-09-06T16:40:01.960Z,26.60
2022-09-06T16:42:31.598Z,26.60
2022-09-06T16:45:00.014Z,26.60
2022-09-06T16:47:28.299Z,26.70
2022-09-06T16:49:56.632Z,26.80
2022-09-06T16:52:25.031Z,26.80
2022-09-06T16:54:53.620Z,26.80
2022-09-06T16:57:25.647Z,26.80
2022-09-06T16:59:55.270Z,26.80
2022-09-06T17:02:24.019Z,26.80
2022-09-06T17:04:53.889Z,26.80
2022-09-06T17:07:22.538Z,26.70
2022-09-06T17:09:50.850Z,26.60
2022-09-06T17:12:19.291Z,26.50
2022-09-06T17:14:47.540Z,26.40
2022-09-06T17:17:18.397Z,26.40
2022-09-06T17:19:46.609Z,26.30
2022-09-06T17:22:14.959Z,26.30
2022-09-06T17:24:43.670Z,26.10
2022-09-06T17:27:12.047Z,26.00
2022-09-06T17:29:40.781Z,25.90
2022-09-06T17:32:10.235Z,25.70
2022-09-06T17:34:40.787Z,25.60
2022-09-06T17:37:09.679Z,25.40
2022-09-06T17:39:38.366Z,25.20
2022-09-06T17:42:07.164Z,25.10
2022-09-06T17:44:35.663Z,25.10
2022-09-06T17:47:13.315Z,25.00
2022-09-06T17:49:44.933Z,24.90
2022-09-06T17:52:13.874Z,24.80
2022-09-06T17:54:42.071Z,24.70
2022-09-06T17:57:10.194Z,24.50
2022-09-06T17:59:38.506Z,24.40
2022-09-06T18:02:09.399Z,24.30
2022-09-06T18:04:37.634Z,24.10
2022-09-06T18:07:07.284Z,23.90
2022-09-06T18:09:36.904Z,23.80
2022-09-06T18:12:05.362Z,23.80
2022-09-06T18:14:33.582Z,23.60
2022-09-06T18:17:04.187Z,23.50
2022-09-06T18:19:32.298Z,23.30
2022-09-06T18:22:00.412Z,23.30
2022-09-06T18:24:30.163Z,23.20
2022-09-06T18:26:58.479Z,23.10
2022-09-06T18:29:26.603Z,23.00
2022-09-06T18:31:57.416Z,22.90
2022-09-06T18:34:25.663Z,22.90
2022-09-06T18:36:53.827Z,22.80
2022-09-06T18:39:22.041Z,22.70
2022-09-06T18:42:00.761Z,22.60
2022-09-06T18:44:32.284Z,22.50
2022-09-06T18:47:02.072Z,22.30
2022-09-06T18:49:32.477Z,22.20
2022-09-06T18:52:03.336Z,22.00
2022-09-06T18:54:31.944Z,21.80
2022-09-06T18:57:01.424Z,21.80
2022-09-06T18:59:29.535Z,21.70
2022-09-06T19:01:57.793Z,21.60
2022-09-06T19:04:26.193Z,21.40
2022-09-06T19:06:56.670Z,21.30
2022-09-06T19:09:24.887Z,21.20
2022-09-06T19:11:53.735Z,21.10
2022-09-06T19:14:23.402Z,21.00
2022-09-06T19:16:53.798Z,21.00
2022-09-06T19:19:23.077Z,21.00
2022-09-06T19:21:51.691Z,21.10
2022-09-06T19:24:22.526Z,21.00
2022-09-06T19:26:51.464Z,20.90
2022-09-06T19:29:20.649Z,20.90
2022-09-06T19:31:50.404Z,20.80
2022-09-06T19:34:19.006Z,20.70
2022-09-06T19:36:47.185Z,20.70
2022-09-06T19:39:17.156Z,20.60
2022-09-06T19:41:47.429Z,20.40
2022-09-06T19:44:16.885Z,20.40
2022-09-06T19:46:47.307Z,20.30
2022-09-06T19:49:19.107Z,20.30
2022-09-06T19:51:48.884Z,20.30
2022-09-06T19:54:17.852Z,20.20
2022-09-06T19:56:46.623Z,20.10
2022-09-06T19:59:23.409Z,20.10
2022-09-06T20:01:51.570Z,20.10
2022-09-06T20:04:21.290Z,20.00
2022-09-06T20:06:49.524Z,20.00
2022-09-06T20:09:17.720Z,19.90
2022-09-06T20:11:46.389Z,19.80
2022-09-06T20:14:14.863Z,19.80
2022-09-06T20:16:43.097Z,19.70
2022-09-06T20:19:14.177Z,19.60
2022-09-06T20:21:44.096Z,19.60
2022-09-06T20:24:12.443Z,19.60
2022-09-06T20:26:40.652Z,19.60
2022-09-06T20:29:08.866Z,19.50
2022-09-06T20:31:37.879Z,19.40
2022-09-06T20:34:07.432Z,19.30
2022-09-06T20:36:35.884Z,19.30
2022-09-06T20:39:05.869Z,19.20
2022-09-06T20:41:34.938Z,19.20
2022-09-06T20:44:03.630Z,19.10
2022-09-06T20:46:35.084Z,19.10
2022-09-06T20:49:05.049Z,19.10
2022-09-06T20:51:35.276Z,19.10
2022-09-06T20:54:06.123Z,19.00
2022-09-06T20:56:36.372Z,18.90
2022-09-06T20:59:06.595Z,18.90
2022-09-06T21:01:36.540Z,18.90
2022-09-06T21:04:07.447Z,18.90
2022-09-06T21:06:37.603Z,18.90
2022-09-06T21:09:08.723Z,18.80
2022-09-06T21:11:37.289Z,18.80
2022-09-06T21:14:09.396Z,18.70
2022-09-06T21:16:38.831Z,18.70
2022-09-06T21:19:09.078Z,18.70
2022-09-06T21:21:37.803Z,18.70
2022-09-06T21:24:08.961Z,18.60
2022-09-06T21:26:37.432Z,18.60
2022-09-06T21:29:07.623Z,18.50
2022-09-06T21:31:37.860Z,18.50
2022-09-06T21:34:11.489Z,18.40
2022-09-06T21:36:43.531Z,18.40
2022-09-06T21:39:13.623Z,18.30
2022-09-06T21:41:43.319Z,18.30
2022-09-06T21:44:12.119Z,18.20
2022-09-06T21:46:41.639Z,18.20
2022-09-06T21:49:11.834Z,18.20
2022-09-06T21:51:43.267Z,18.10
2022-09-06T21:54:12.781Z,18.10
2022-09-06T21:56:43.280Z,18.10
2022-09-06T21:59:11.491Z,18.10
2022-09-06T22:01:43.156Z,18.10
2022-09-06T22:04:13.600Z,18.10
2022-09-06T22:06:41.813Z,18.20
2022-09-06T22:09:12.923Z,18.10
2022-09-06T22:11:42.791Z,18.10
2022-09-06T22:14:12.827Z,18.10
2022-09-06T22:16:41.915Z,18.10
2022-09-06T22:19:10.942Z,18.10
2022-09-06T22:21:39.638Z,18.10
2022-09-06T22:24:10.406Z,18.00
2022-09-06T22:26:41.846Z,17.90
2022-09-06T22:29:15.484Z,17.90
2022-09-06T22:31:44.458Z,17.80
2022-09-06T22:34:12.915Z,17.70
2022-09-06T22:36:43.773Z,17.70
2022-09-06T22:39:11.923Z,17.70
2022-09-06T22:41:41.386Z,17.70
2022-09-06T22:44:09.496Z,17.70
2022-09-06T22:46:39.927Z,17.70
2022-09-06T22:49:08.258Z,17.70
2022-09-06T22:51:36.397Z,17.60
2022-09-06T22:54:07.660Z,17.50
2022-09-06T22:56:36.385Z,17.50
2022-09-06T22:59:06.300Z,17.50
2022-09-06T23:01:38.746Z,17.40
2022-09-06T23:04:07.419Z,17.40
2022-09-06T23:06:40.774Z,17.40
2022-09-06T23:09:13.871Z,17.40
2022-09-06T23:11:47.825Z,17.40
2022-09-06T23:14:25.424Z,17.40
2022-09-06T23:17:00.523Z,17.30
2022-09-06T23:19:44.650Z,17.30
2022-09-06T23:22:16.126Z,17.20
2022-09-06T23:24:48.628Z,17.30
2022-09-06T23:27:20.312Z,17.20
2022-09-06T23:29:50.763Z,17.30
2022-09-06T23:32:18.880Z,17.20
2022-09-06T23:34:47.026Z,17.20
2022-09-06T23:37:15.165Z,17.20
2022-09-06T23:39:43.348Z,17.10
2022-09-06T23:42:11.893Z,17.10
2022-09-06T23:44:40.124Z,17.10
2022-09-06T23:47:09.659Z,17.10
2022-09-06T23:49:37.733Z,17.10
2022-09-06T23:52:08.673Z,17.10
2022-09-06T23:54:36.812Z,17.10
2022-09-06T23:57:05.245Z,17.10
2022-09-06T23:59:34.937Z,17.00
